CheckWX is a tool to help pilots better visualize weather data.  It is not intended as a substitute for an official pre-flight weather briefing.

14:50:47 UTC

EGNX METAR
East Midlands Airport
Nottingham, United Kingdom
Current

31 mins ago

EGNX 201420Z 27009KT 240V310 9999 FEW045 18/09 Q1013
Observed
May-20 @ 14:20 UTC
Wind
  • 270° at 9 KTS
Visibility
10,000+ meters
Flight Rules
VFR
Cloud Levels
  • Few at 4,500' AGL
Temperature
18°C / 64°F
Dewpoint
C / 48°F
Humidity
56%
Altimeter
29.91" Hg
Pressure
1012.92 hPa
Previous

1 hour ago

EGNX 201350Z 27010KT 9999 FEW047 17/08 Q1013
Observed
May-20 @ 13:50 UTC
Wind
  • 270° at 10 KTS
Visibility
10,000+ meters
Flight Rules
VFR
Cloud Levels
  • Few at 4,700' AGL
Temperature
17°C / 63°F
Dewpoint
C / 46°F
Humidity
56%
Altimeter
29.91" Hg
Pressure
1012.92 hPa
Previous

2 hours ago

EGNX 201320Z 27010KT 240V300 9999 SCT045 18/07 Q1013
Observed
May-20 @ 13:20 UTC
Wind
  • 270° at 10 KTS
Visibility
10,000+ meters
Flight Rules
VFR
Cloud Levels
  • Scattered at 4,500' AGL
Temperature
18°C / 64°F
Dewpoint
C / 45°F
Humidity
49%
Altimeter
29.91" Hg
Pressure
1012.92 hPa